Meteo Giornale » Osservazioni meteo Portogallo » Beja
ore: 19:00 - Osservazioni Meteo Beja
Lat. 38° 1' N Lon. 7° 52' W Alt. 246 metri s.l.m.
30 °C
Sereno
Temp. 24 Ore
14 °C
32 °C
Ovest/Nord-Ovest
24 Km/h
Dew point 8 °C
Umidità 25 %
Visibilità 10 Km
Il sole sorge alle ore 07:00
Il sole tramonta alle ore 20:03
| Data e Ora | Cielo e Fenomeni | T °C | DP °C | Um. % | Pres. hPa | Vis. km | Vento km/h | |
|---|---|---|---|---|---|---|---|---|
| Oggi h: 19:00 | Sereno | 30 | 8 | 25 | 1017 | 10 | O/NO 24 | |
| Oggi h: 18:00 | Sereno | 31 | 6 | 20 | 1017 | 10 | NO 20.3 | |
| Oggi h: 17:00 | Sereno | 31 | 8 | 23 | 1017 | 10 | O/NO 20.3 | |
| Oggi h: 16:00 | Sereno | 31 | 9 | 25 | 1018 | 10 | N/NO 16.7 | |
| Oggi h: 15:00 | Sereno | 32 | 9 | 24 | 1018 | 10 | NO 14.8 | |
| Oggi h: 14:00 | Sereno | 29 | 10 | 30 | 1019 | 10 | N/NO 14.8 | |
| Oggi h: 13:00 | Sereno | 28 | 11 | 34 | 1019 | 10 | NO 14.8 | |
| Oggi h: 12:00 | Sereno | 25 | 13 | 47 | 1020 | 10 | NO 13 | |
| Oggi h: 11:00 | Sereno | 22 | 13 | 56 | 1020 | 10 | NO 14.8 | |
| Oggi h: 10:00 | Poco Nuvoloso | 20 | 13 | 64 | 1020 | 10 | N/NO 13 | |
| Oggi h: 09:00 | Poco Nuvoloso | 17 | 13 | 77 | 1020 | 10 | O/NO 9.3 | |
| Oggi h: 08:00 | Sereno | 14 | 13 | 93 | 1019 | 10 | O/NO 9.3 | |
| Oggi h: 07:00 | Sereno | 14 | 13 | 93 | 1019 | 10 | NO 11.1 | |
| Oggi h: 06:00 | Sereno | 14 | 13 | 93 | 1019 | 10 | O/NO 13 | |
| Oggi h: 05:00 | Sereno | 15 | 13 | 87 | 1019 | 10 | O/NO 14.8 | |
| Oggi h: 04:00 | Sereno | 16 | 12 | 77 | 1019 | 10 | O/NO 9.3 | |
| Oggi h: 03:00 | Sereno | 17 | 13 | 77 | 1019 | 10 | NO 9.3 | |
| Oggi h: 02:00 | Sereno | 18 | 14 | 77 | 1019 | 10 | NO 7.4 | |
| Oggi h: 01:00 | Sereno | 19 | 14 | 72 | 1019 | 10 | NO 11.1 | |
| Oggi h: 00:00 | Sereno | 21 | 14 | 64 | 1019 | 10 | NO 13 | |
| Ieri h: 23:00 | Sereno | 23 | 14 | 56 | 1019 | 10 | NO 14.8 | |
| Ieri h: 22:00 | Sereno | 25 | 15 | 53 | 1019 | 10 | NO 16.7 | |
| Ieri h: 21:00 | Sereno | 26 | 15 | 50 | 1018 | 10 | NO 20.3 | |
| Ieri h: 20:00 | Sereno | 28 | 14 | 42 | 1017 | 10 | NO 18.5 | |



